Time;durP1;ratioP1;P1;durP2;ratioP2;P2;SDS_P1;SDS_P2;PMS_P1;PMS_P2;Temp;Humidity;BMP_temperature;BMP_pressure;BME280_temperature;BME280_humidity;BME280_pressure;Samples;Min_cycle;Max_cycle;Signal;HPM_P1;HPM_P2
2021/07/08 00:01:06;;;;;;;;;;;18.40;99.90;;;;;;5034782;28;20526;-47
2021/07/08 00:03:32;;;;;;;;;;;18.40;99.90;;;;;;5053289;28;19952;-47
2021/07/08 00:05:58;;;;;;;;;;;18.40;99.90;;;;;;5050809;28;19923;-56
2021/07/08 00:08:23;;;;;;;;;;;18.40;99.90;;;;;;5084964;22;19924;-61
2021/07/08 00:10:52;;;;;;;;;;;18.30;99.90;;;;;;5072459;28;19915;-59
2021/07/08 00:13:20;;;;;;;;;;;18.30;99.90;;;;;;5064953;28;19997;-60
2021/07/08 00:15:45;;;;;;;;;;;18.30;99.90;;;;;;5071395;28;20065;-60
2021/07/08 00:18:12;;;;;;;;;;;18.30;99.90;;;;;;5069010;28;19986;-60
2021/07/08 00:20:38;;;;;;;;;;;18.30;99.90;;;;;;5058079;28;19916;-61
2021/07/08 00:23:04;;;;;;;;;;;18.20;99.90;;;;;;5062388;28;19978;-60
2021/07/08 00:25:30;;;;;;;;;;;18.20;99.90;;;;;;5064027;28;19908;-60
2021/07/08 00:27:56;;;;;;;;;;;18.20;99.90;;;;;;5063221;28;19948;-59
2021/07/08 00:30:23;;;;;;;;;;;18.10;99.90;;;;;;5060712;28;20091;-59
2021/07/08 00:32:48;;;;;;;;;;;18.10;99.90;;;;;;5060363;28;19909;-60
2021/07/08 00:35:14;;;;;;;;;;;18.00;99.90;;;;;;5063743;28;19977;-61
2021/07/08 00:37:39;;;;;;;;;;;18.00;99.90;;;;;;5062816;28;20366;-61
2021/07/08 00:40:07;;;;;;;;;;;17.90;99.90;;;;;;5062685;28;19920;-61
2021/07/08 00:42:32;;;;;;;;;;;17.90;99.90;;;;;;5064107;28;19919;-60
2021/07/08 00:44:58;;;;;;;;;;;17.80;99.90;;;;;;5062210;28;20287;-60
2021/07/08 00:47:23;;;;;;;;;;;17.80;99.90;;;;;;5064185;28;20290;-60
2021/07/08 00:49:50;;;;;;;;;;;17.80;99.90;;;;;;5063503;28;19924;-60
2021/07/08 00:52:15;;;;;;;;;;;17.80;99.90;;;;;;5050297;28;19988;-59
2021/07/08 00:54:59;;;;;;;;;;;17.80;99.90;;;;;;5062534;28;19915;-60
2021/07/08 00:57:24;;;;;;;;;;;17.70;99.90;;;;;;5063462;28;19915;-61
2021/07/08 00:59:53;;;;;;;;;;;17.70;99.90;;;;;;5042372;28;20606;-60
2021/07/08 01:02:20;;;;;;;;;;;17.60;99.90;;;;;;5060687;28;20632;-61
2021/07/08 01:04:46;;;;;;;;;;;17.60;99.90;;;;;;5062401;28;20395;-60
2021/07/08 01:07:12;;;;;;;;;;;17.50;99.90;;;;;;5060875;28;19917;-61
2021/07/08 01:09:38;;;;;;;;;;;17.50;99.90;;;;;;5063605;28;19909;-60
2021/07/08 01:12:04;;;;;;;;;;;17.40;99.90;;;;;;5061901;28;19909;-61
2021/07/08 01:14:29;;;;;;;;;;;17.40;99.90;;;;;;5063360;28;19919;-60
2021/07/08 01:16:55;;;;;;;;;;;17.40;99.90;;;;;;5062541;28;19909;-60
2021/07/08 01:19:20;;;;;;;;;;;17.30;99.90;;;;;;5063319;28;19912;-60
2021/07/08 01:21:46;;;;;;;;;;;17.30;99.90;;;;;;5063196;28;19959;-59
2021/07/08 01:24:11;;;;;;;;;;;17.30;99.90;;;;;;5060107;28;19912;-60
2021/07/08 01:26:38;;;;;;;;;;;17.30;99.90;;;;;;5062890;28;20401;-60
2021/07/08 01:29:03;;;;;;;;;;;17.30;99.90;;;;;;5061568;28;19947;-59
2021/07/08 01:31:29;;;;;;;;;;;17.30;99.90;;;;;;5062752;28;19955;-60
2021/07/08 01:33:55;;;;;;;;;;;17.30;99.90;;;;;;5061642;28;20058;-59
2021/07/08 01:36:20;;;;;;;;;;;17.30;99.90;;;;;;5061306;28;19916;-59
2021/07/08 01:38:46;;;;;;;;;;;17.30;99.90;;;;;;5062895;28;19954;-61
2021/07/08 01:41:11;;;;;;;;;;;17.30;99.90;;;;;;5061436;28;20512;-62
2021/07/08 01:43:38;;;;;;;;;;;17.30;99.90;;;;;;5063073;28;20000;-61
2021/07/08 01:46:11;;;;;;;;;;;17.30;99.90;;;;;;5062193;28;20481;-58
2021/07/08 01:48:37;;;;;;;;;;;17.30;99.90;;;;;;5062946;28;19912;-59
2021/07/08 01:51:04;;;;;;;;;;;17.30;99.90;;;;;;5060863;28;19913;-60
2021/07/08 01:53:30;;;;;;;;;;;17.30;99.90;;;;;;5062762;28;19962;-61
2021/07/08 01:55:57;;;;;;;;;;;17.30;99.90;;;;;;5061644;28;19912;-59
2021/07/08 01:58:23;;;;;;;;;;;17.40;99.90;;;;;;5062439;28;19912;-60
2021/07/08 02:00:49;;;;;;;;;;;17.40;99.90;;;;;;5062197;28;19916;-60
2021/07/08 02:03:14;;;;;;;;;;;17.40;99.90;;;;;;5062044;28;19962;-59
2021/07/08 02:05:40;;;;;;;;;;;17.50;99.90;;;;;;5062387;28;19909;-61
2021/07/08 02:08:05;;;;;;;;;;;17.50;99.90;;;;;;5060045;28;19947;-61
2021/07/08 02:10:31;;;;;;;;;;;17.50;99.90;;;;;;5062678;28;19908;-59
2021/07/08 02:12:56;;;;;;;;;;;17.40;99.90;;;;;;5061811;28;19977;-60
2021/07/08 02:15:22;;;;;;;;;;;17.40;99.90;;;;;;5061440;28;20332;-60
2021/07/08 02:17:48;;;;;;;;;;;17.40;99.90;;;;;;5062397;28;19908;-60
2021/07/08 02:20:15;;;;;;;;;;;17.40;99.90;;;;;;5061577;28;19919;-60
2021/07/08 02:22:41;;;;;;;;;;;17.40;99.90;;;;;;5062258;28;19912;-60
2021/07/08 02:25:07;;;;;;;;;;;17.40;99.90;;;;;;5059921;28;19908;-60
2021/07/08 02:27:33;;;;;;;;;;;17.40;99.90;;;;;;5062740;28;20011;-60
2021/07/08 02:29:58;;;;;;;;;;;17.40;99.90;;;;;;5060985;28;19991;-61
2021/07/08 02:32:23;;;;;;;;;;;17.30;99.90;;;;;;5058473;28;20271;-60
2021/07/08 02:34:49;;;;;;;;;;;17.40;99.90;;;;;;5058250;28;19909;-61
2021/07/08 02:37:15;;;;;;;;;;;17.40;99.90;;;;;;5064813;28;19986;-60
2021/07/08 02:39:40;;;;;;;;;;;17.30;99.90;;;;;;5058602;28;19967;-61
2021/07/08 02:42:06;;;;;;;;;;;17.40;99.90;;;;;;5065954;28;20003;-59
2021/07/08 02:44:32;;;;;;;;;;;17.30;99.90;;;;;;5040522;28;20088;-61
2021/07/08 02:46:57;;;;;;;;;;;17.40;99.90;;;;;;5066479;28;19931;-60
2021/07/08 02:49:23;;;;;;;;;;;17.30;99.90;;;;;;5058451;28;19916;-60
2021/07/08 02:51:48;;;;;;;;;;;17.40;99.90;;;;;;5058649;28;19912;-60
2021/07/08 02:54:14;;;;;;;;;;;17.30;99.90;;;;;;5064536;28;19909;-60
2021/07/08 02:56:39;;;;;;;;;;;17.40;99.90;;;;;;5057974;28;20295;-60
2021/07/08 02:59:05;;;;;;;;;;;17.40;99.90;;;;;;5065428;28;19912;-60
2021/07/08 03:01:30;;;;;;;;;;;17.40;99.90;;;;;;5058007;28;19913;-58
2021/07/08 03:03:56;;;;;;;;;;;17.40;99.90;;;;;;5066144;28;20452;-62
2021/07/08 03:06:21;;;;;;;;;;;17.40;99.90;;;;;;5057781;28;19909;-60
2021/07/08 03:08:47;;;;;;;;;;;17.40;99.90;;;;;;5058444;28;20438;-60
2021/07/08 03:11:12;;;;;;;;;;;17.40;99.90;;;;;;5064706;28;19915;-60
2021/07/08 03:13:38;;;;;;;;;;;17.40;99.90;;;;;;5040145;28;20054;-61
2021/07/08 03:16:04;;;;;;;;;;;17.40;99.90;;;;;;5064978;28;19908;-61
2021/07/08 03:18:30;;;;;;;;;;;17.40;99.90;;;;;;5058017;28;19916;-60
2021/07/08 03:20:55;;;;;;;;;;;17.40;99.90;;;;;;5066044;28;19912;-60
2021/07/08 03:23:21;;;;;;;;;;;17.40;99.90;;;;;;5057746;28;19943;-61
2021/07/08 03:25:46;;;;;;;;;;;17.50;99.90;;;;;;5058131;28;19948;-61
2021/07/08 03:28:12;;;;;;;;;;;17.50;99.90;;;;;;5066963;28;19913;-59
2021/07/08 03:30:38;;;;;;;;;;;17.50;99.90;;;;;;5061349;28;19917;-60
2021/07/08 03:33:03;;;;;;;;;;;17.50;99.90;;;;;;5063427;28;19916;-59
2021/07/08 03:35:29;;;;;;;;;;;17.50;99.90;;;;;;5064767;28;19915;-60
2021/07/08 03:37:56;;;;;;;;;;;17.50;99.90;;;;;;5060814;28;20397;-59
2021/07/08 03:40:21;;;;;;;;;;;17.50;99.90;;;;;;5063191;28;19923;-60
2021/07/08 03:42:49;;;;;;;;;;;17.50;99.90;;;;;;5063236;28;19908;-58
2021/07/08 03:45:15;;;;;;;;;;;17.60;99.90;;;;;;5050804;28;19909;-60
2021/07/08 03:47:41;;;;;;;;;;;17.50;99.90;;;;;;5065725;28;20369;-61
2021/07/08 03:50:07;;;;;;;;;;;17.50;99.90;;;;;;5063929;28;19954;-60
2021/07/08 03:52:33;;;;;;;;;;;17.60;99.90;;;;;;5064827;28;20287;-60
2021/07/08 03:54:58;;;;;;;;;;;17.60;99.90;;;;;;5062530;28;19916;-59
2021/07/08 03:57:24;;;;;;;;;;;17.60;99.90;;;;;;5064767;28;19916;-61
2021/07/08 03:59:49;;;;;;;;;;;17.60;99.90;;;;;;5063615;28;19913;-60
2021/07/08 04:02:15;;;;;;;;;;;17.60;99.90;;;;;;5040650;28;19908;-60
2021/07/08 04:04:41;;;;;;;;;;;17.70;99.90;;;;;;5065279;28;19960;-60
2021/07/08 04:07:07;;;;;;;;;;;17.70;99.90;;;;;;5063463;28;20390;-60
2021/07/08 04:09:33;;;;;;;;;;;17.70;99.90;;;;;;5064818;28;19912;-60
2021/07/08 04:11:59;;;;;;;;;;;17.70;99.90;;;;;;5062461;28;19908;-58
2021/07/08 04:14:24;;;;;;;;;;;17.70;99.90;;;;;;5064435;28;19908;-60
2021/07/08 04:16:50;;;;;;;;;;;17.70;99.90;;;;;;5062975;28;19909;-59
2021/07/08 04:19:15;;;;;;;;;;;17.70;99.90;;;;;;5064475;28;20439;-59
2021/07/08 04:21:41;;;;;;;;;;;17.80;99.90;;;;;;5065237;28;19962;-60
2021/07/08 04:24:06;;;;;;;;;;;17.80;99.90;;;;;;5063034;28;19959;-60
2021/07/08 04:26:32;;;;;;;;;;;17.90;99.90;;;;;;5064086;28;20302;-60
2021/07/08 04:28:57;;;;;;;;;;;17.90;99.90;;;;;;5062084;28;20268;-59
2021/07/08 04:31:23;;;;;;;;;;;17.90;99.90;;;;;;5064077;28;19996;-58
2021/07/08 04:33:48;;;;;;;;;;;18.00;99.90;;;;;;5064254;28;19909;-59
2021/07/08 04:36:14;;;;;;;;;;;18.00;99.90;;;;;;5061728;28;19909;-60
2021/07/08 04:38:41;;;;;;;;;;;18.10;99.90;;;;;;5063924;28;19913;-59
2021/07/08 04:41:07;;;;;;;;;;;18.10;99.90;;;;;;5062844;28;19920;-60
2021/07/08 04:43:32;;;;;;;;;;;18.20;99.90;;;;;;5064023;28;19916;-62
2021/07/08 04:45:58;;;;;;;;;;;18.20;99.90;;;;;;5063128;28;19911;-58
2021/07/08 04:48:23;;;;;;;;;;;18.30;99.90;;;;;;5063969;28;19908;-60
2021/07/08 04:50:49;;;;;;;;;;;18.30;99.90;;;;;;5063987;28;20003;-59
2021/07/08 04:53:17;;;;;;;;;;;18.30;99.90;;;;;;5061546;28;20294;-61
2021/07/08 04:55:44;;;;;;;;;;;18.40;99.90;;;;;;5045593;28;19912;-58
2021/07/08 04:58:09;;;;;;;;;;;18.40;99.90;;;;;;5044343;28;20000;-61
2021/07/08 05:00:35;;;;;;;;;;;18.40;99.90;;;;;;5063678;28;20003;-59
2021/07/08 05:03:04;;;;;;;;;;;18.40;99.90;;;;;;5063150;28;20002;-58
2021/07/08 05:05:30;;;;;;;;;;;18.50;99.90;;;;;;5063406;28;20031;-60
2021/07/08 05:07:55;;;;;;;;;;;18.50;99.90;;;;;;5062547;28;20567;-60
2021/07/08 05:10:21;;;;;;;;;;;18.60;99.90;;;;;;5062497;28;19914;-60
2021/07/08 05:12:46;;;;;;;;;;;18.60;99.90;;;;;;5063562;28;20448;-60
2021/07/08 05:15:14;;;;;;;;;;;18.60;99.90;;;;;;5061782;28;19919;-61
2021/07/08 05:17:39;;;;;;;;;;;18.60;99.90;;;;;;5063237;28;19908;-60
2021/07/08 05:20:06;;;;;;;;;;;18.60;99.90;;;;;;5062584;28;19975;-61
2021/07/08 05:22:35;;;;;;;;;;;18.60;99.90;;;;;;5063175;28;20251;-61
2021/07/08 05:25:00;;;;;;;;;;;18.60;99.90;;;;;;5061485;28;19908;-60
2021/07/08 05:27:26;;;;;;;;;;;18.60;99.90;;;;;;5044880;28;20007;-62
2021/07/08 05:29:52;;;;;;;;;;;18.60;99.90;;;;;;5044992;28;19962;-60
2021/07/08 05:32:18;;;;;;;;;;;18.70;99.90;;;;;;5059388;28;19909;-60
2021/07/08 05:34:44;;;;;;;;;;;18.70;99.90;;;;;;5059145;28;20397;-60
2021/07/08 05:37:09;;;;;;;;;;;18.70;99.90;;;;;;5065778;28;19909;-59
2021/07/08 05:39:35;;;;;;;;;;;18.80;99.90;;;;;;5059487;28;20348;-59
2021/07/08 05:42:01;;;;;;;;;;;18.80;99.90;;;;;;5066602;28;20437;-60
2021/07/08 05:44:26;;;;;;;;;;;18.80;99.90;;;;;;5059153;28;19909;-61
2021/07/08 05:46:52;;;;;;;;;;;18.90;99.90;;;;;;5067010;28;19913;-60
2021/07/08 05:49:17;;;;;;;;;;;19.00;99.90;;;;;;5058797;28;19917;-61
2021/07/08 05:51:43;;;;;;;;;;;19.00;99.90;;;;;;5059183;28;19909;-60
2021/07/08 05:54:08;;;;;;;;;;;19.10;99.90;;;;;;5065458;28;19940;-58
2021/07/08 05:56:34;;;;;;;;;;;19.20;99.90;;;;;;5058980;28;19909;-59
2021/07/08 05:58:59;;;;;;;;;;;19.20;99.90;;;;;;5066317;28;19909;-60
2021/07/08 06:01:25;;;;;;;;;;;19.30;99.90;;;;;;5041101;28;19927;-58
2021/07/08 06:03:50;;;;;;;;;;;19.40;99.90;;;;;;5066990;28;20397;-61
2021/07/08 06:06:16;;;;;;;;;;;19.40;99.90;;;;;;5058881;28;19995;-59
2021/07/08 06:08:43;;;;;;;;;;;19.50;99.90;;;;;;5059451;28;19913;-60
2021/07/08 06:11:09;;;;;;;;;;;19.60;99.90;;;;;;5065478;28;19909;-59
2021/07/08 06:13:34;;;;;;;;;;;19.70;99.90;;;;;;5041034;28;20357;-61
2021/07/08 06:15:59;;;;;;;;;;;19.70;99.90;;;;;;5047967;28;19908;-61
2021/07/08 06:18:25;;;;;;;;;;;19.80;99.90;;;;;;5058806;28;19971;-59
2021/07/08 06:20:50;;;;;;;;;;;19.90;99.90;;;;;;5066800;28;19912;-59
2021/07/08 06:23:16;;;;;;;;;;;19.90;99.90;;;;;;5057741;28;19916;-60
2021/07/08 06:25:41;;;;;;;;;;;19.90;99.90;;;;;;5057205;28;19909;-61
2021/07/08 06:28:07;;;;;;;;;;;20.00;99.90;;;;;;5061051;28;19909;-62
2021/07/08 06:30:32;;;;;;;;;;;20.20;99.90;;;;;;5062317;28;20317;-60
2021/07/08 06:32:58;;;;;;;;;;;20.30;99.90;;;;;;5067636;28;19909;-61
2021/07/08 06:35:23;;;;;;;;;;;20.50;99.90;;;;;;5058176;28;20393;-61
2021/07/08 06:37:49;;;;;;;;;;;20.70;99.90;;;;;;5054312;28;19916;-60
2021/07/08 06:40:16;;;;;;;;;;;20.70;99.90;;;;;;5061051;28;20362;-60
2021/07/08 06:42:42;;;;;;;;;;;20.70;99.90;;;;;;5043860;28;19909;-57
2021/07/08 06:45:11;;;;;;;;;;;20.70;99.90;;;;;;5061944;28;19915;-59
2021/07/08 06:47:39;;;;;;;;;;;20.70;99.90;;;;;;5062658;28;20466;-59
2021/07/08 06:50:08;;;;;;;;;;;20.60;99.90;;;;;;5060731;28;19909;-60
2021/07/08 06:52:33;;;;;;;;;;;20.60;99.90;;;;;;5063783;28;19963;-57
2021/07/08 06:54:59;;;;;;;;;;;20.60;99.90;;;;;;5059383;28;19948;-60
2021/07/08 06:57:24;;;;;;;;;;;20.60;99.90;;;;;;5061696;28;19909;-61
2021/07/08 06:59:50;;;;;;;;;;;20.50;99.90;;;;;;5059733;28;20022;-59
2021/07/08 07:02:15;;;;;;;;;;;20.50;99.90;;;;;;5064662;28;19951;-60
2021/07/08 07:04:41;;;;;;;;;;;20.40;99.90;;;;;;5065906;28;20375;-59
2021/07/08 07:07:06;;;;;;;;;;;20.40;99.90;;;;;;5064644;28;19923;-60
2021/07/08 07:09:32;;;;;;;;;;;20.40;99.90;;;;;;5065892;28;20379;-58
2021/07/08 07:11:57;;;;;;;;;;;20.50;99.90;;;;;;5060881;28;19916;-59
2021/07/08 07:14:23;;;;;;;;;;;20.50;99.90;;;;;;5065575;28;19919;-60
2021/07/08 07:16:48;;;;;;;;;;;20.60;99.90;;;;;;5064445;28;20422;-60
2021/07/08 07:19:14;;;;;;;;;;;20.70;99.90;;;;;;5065431;28;19909;-58
2021/07/08 07:21:39;;;;;;;;;;;20.80;99.90;;;;;;5066478;28;19919;-59
2021/07/08 07:24:05;;;;;;;;;;;21.00;99.90;;;;;;5046182;28;20375;-60
2021/07/08 07:26:30;;;;;;;;;;;21.20;99.90;;;;;;5065194;28;19924;-59
2021/07/08 07:28:56;;;;;;;;;;;21.40;99.90;;;;;;5063425;28;19998;-60
2021/07/08 07:31:21;;;;;;;;;;;21.50;99.90;;;;;;5075198;22;21024;-49
2021/07/08 07:33:47;;;;;;;;;;;21.60;99.90;;;;;;5052677;28;19921;-53
2021/07/08 07:36:12;;;;;;;;;;;21.80;99.90;;;;;;5052999;28;19916;-49
2021/07/08 07:38:38;;;;;;;;;;;22.00;99.90;;;;;;5053738;28;19909;-48
2021/07/08 07:41:04;;;;;;;;;;;22.20;99.90;;;;;;5053453;28;19912;-49
2021/07/08 07:43:29;;;;;;;;;;;22.40;99.90;;;;;;5053500;28;20276;-51
2021/07/08 07:45:55;;;;;;;;;;;22.60;99.90;;;;;;5031091;28;19909;-48
2021/07/08 07:48:20;;;;;;;;;;;22.70;99.90;;;;;;5053597;28;20392;-48
2021/07/08 07:50:46;;;;;;;;;;;22.80;99.90;;;;;;5035245;28;19909;-49
2021/07/08 07:53:12;;;;;;;;;;;22.80;99.90;;;;;;5049940;28;19909;-51
2021/07/08 07:55:37;;;;;;;;;;;22.90;99.90;;;;;;5052381;28;19912;-48
2021/07/08 07:58:03;;;;;;;;;;;23.00;99.90;;;;;;5053124;28;20306;-48
2021/07/08 08:00:29;;;;;;;;;;;23.20;99.90;;;;;;5033732;28;20252;-48
2021/07/08 08:02:55;;;;;;;;;;;23.20;99.90;;;;;;5047921;28;19915;-49
2021/07/08 08:10:37;;;;;;;;;;;23.30;99.90;;;;;;5049877;28;19916;-50
2021/07/08 08:13:03;;;;;;;;;;;23.40;99.90;;;;;;5051010;28;19915;-51
2021/07/08 08:15:29;;;;;;;;;;;23.60;99.90;;;;;;5030558;28;19909;-49
2021/07/08 08:17:54;;;;;;;;;;;23.70;99.90;;;;;;5051006;28;20375;-50
2021/07/08 08:20:20;;;;;;;;;;;23.80;99.90;;;;;;5052653;28;19912;-47
2021/07/08 08:22:45;;;;;;;;;;;23.80;99.90;;;;;;5050267;28;19909;-50
2021/07/08 08:25:11;;;;;;;;;;;23.90;99.90;;;;;;5052217;28;19908;-49
2021/07/08 08:27:38;;;;;;;;;;;24.00;99.90;;;;;;5049399;28;19951;-48
2021/07/08 08:30:05;;;;;;;;;;;24.20;99.90;;;;;;5051538;28;20317;-52
2021/07/08 08:32:30;;;;;;;;;;;24.30;99.90;;;;;;5048026;28;20314;-51
2021/07/08 08:34:55;;;;;;;;;;;24.20;99.90;;;;;;5050489;28;19909;-49
2021/07/08 08:37:21;;;;;;;;;;;24.50;99.90;;;;;;5047819;28;20264;-50
2021/07/08 08:39:46;;;;;;;;;;;24.80;99.90;;;;;;5050010;28;19948;-47
2021/07/08 08:42:12;;;;;;;;;;;25.20;99.90;;;;;;5052346;28;19913;-47
2021/07/08 08:44:38;;;;;;;;;;;25.30;99.90;;;;;;5048851;28;19998;-48
2021/07/08 08:47:07;;;;;;;;;;;25.60;99.90;;;;;;5033323;28;19924;-51
2021/07/08 08:49:36;;;;;;;;;;;25.80;99.90;;;;;;5052266;28;19916;-47
2021/07/08 08:52:01;;;;;;;;;;;25.90;99.90;;;;;;5052129;28;20330;-54
2021/07/08 08:54:26;;;;;;;;;;;26.20;99.90;;;;;;5051091;28;19913;-55
2021/07/08 08:56:52;;;;;;;;;;;25.90;99.90;;;;;;5051825;28;19974;-50
2021/07/08 08:59:17;;;;;;;;;;;25.90;99.90;;;;;;5048321;28;20381;-53
2021/07/08 09:01:43;;;;;;;;;;;26.00;99.90;;;;;;5051712;28;19913;-49
2021/07/08 09:04:27;;;;;;;;;;;25.90;99.90;;;;;;5044291;28;19916;-52
2021/07/08 09:06:52;;;;;;;;;;;26.00;99.90;;;;;;5052148;28;20472;-49
2021/07/08 09:09:18;;;;;;;;;;;25.90;99.90;;;;;;5048411;28;19909;-54
2021/07/08 09:11:43;;;;;;;;;;;25.90;99.90;;;;;;5050999;28;20482;-48
2021/07/08 09:14:11;;;;;;;;;;;25.80;99.90;;;;;;5049058;28;19999;-52
2021/07/08 09:16:40;;;;;;;;;;;25.80;99.90;;;;;;5048482;28;20007;-52
2021/07/08 09:19:15;;;;;;;;;;;25.60;99.90;;;;;;5049516;28;19909;-53
2021/07/08 09:21:51;;;;;;;;;;;25.50;99.40;;;;;;5047624;28;19913;-52
2021/07/08 09:24:22;;;;;;;;;;;25.50;99.90;;;;;;5025988;28;20375;-47
2021/07/08 09:27:02;;;;;;;;;;;25.20;99.90;;;;;;5047858;28;19935;-53
2021/07/08 09:29:28;;;;;;;;;;;25.20;99.90;;;;;;5044984;28;20375;-49
2021/07/08 09:31:58;;;;;;;;;;;25.20;99.90;;;;;;5028549;28;19921;-50
2021/07/08 09:34:25;;;;;;;;;;;25.30;99.90;;;;;;5049326;28;19909;-54
2021/07/08 09:37:20;;;;;;;;;;;25.20;99.90;;;;;;5046082;28;19913;-58
2021/07/08 09:39:47;;;;;;;;;;;25.30;99.90;;;;;;5031406;28;19958;-51
2021/07/08 09:42:13;;;;;;;;;;;25.30;99.90;;;;;;5050965;28;20371;-51
2021/07/08 09:44:39;;;;;;;;;;;25.30;99.90;;;;;;5029916;28;19988;-54
2021/07/08 09:47:17;;;;;;;;;;;25.40;99.90;;;;;;5050336;28;20024;-52
2021/07/08 09:49:44;;;;;;;;;;;25.60;99.90;;;;;;5046658;28;19988;-51
2021/07/08 09:52:10;;;;;;;;;;;25.40;99.90;;;;;;5030453;28;19956;-50
2021/07/08 09:54:47;;;;;;;;;;;25.40;99.90;;;;;;5049490;28;19959;-48
2021/07/08 09:57:30;;;;;;;;;;;25.60;99.90;;;;;;5047994;28;19909;-51
2021/07/08 09:59:55;;;;;;;;;;;25.60;99.90;;;;;;5046499;28;19988;-59
2021/07/08 10:02:31;;;;;;;;;;;25.50;99.90;;;;;;5046826;28;19953;-53
2021/07/08 10:04:58;;;;;;;;;;;25.40;99.90;;;;;;5045871;28;19915;-49
2021/07/08 10:07:24;;;;;;;;;;;25.40;99.90;;;;;;5051391;28;19916;-56
2021/07/08 10:09:50;;;;;;;;;;;25.40;99.90;;;;;;5047250;28;19909;-55
2021/07/08 10:12:15;;;;;;;;;;;25.60;99.90;;;;;;5043150;28;19908;-54
2021/07/08 10:14:43;;;;;;;;;;;25.80;99.90;;;;;;5046196;28;19995;-51
2021/07/08 10:17:09;;;;;;;;;;;26.00;99.90;;;;;;5049040;28;20361;-51
2021/07/08 10:19:35;;;;;;;;;;;26.20;99.90;;;;;;5045526;28;19909;-52
2021/07/08 10:22:01;;;;;;;;;;;26.20;99.90;;;;;;5030271;28;20279;-52
2021/07/08 10:24:27;;;;;;;;;;;26.30;98.80;;;;;;5050467;28;19909;-51
2021/07/08 10:26:52;;;;;;;;;;;26.40;99.90;;;;;;5046895;28;20329;-57
2021/07/08 10:29:18;;;;;;;;;;;26.30;98.00;;;;;;5049611;28;19909;-50
2021/07/08 10:31:48;;;;;;;;;;;26.40;99.00;;;;;;5046290;28;20375;-47
2021/07/08 10:34:14;;;;;;;;;;;26.50;97.50;;;;;;5049040;28;20003;-49
2021/07/08 10:36:41;;;;;;;;;;;26.40;97.70;;;;;;5045005;28;20299;-50
2021/07/08 10:39:07;;;;;;;;;;;26.40;99.20;;;;;;5047592;28;20493;-55
2021/07/08 10:41:35;;;;;;;;;;;26.50;98.00;;;;;;5050372;28;20011;-55
2021/07/08 10:44:01;;;;;;;;;;;26.50;98.10;;;;;;5044925;28;20537;-51
2021/07/08 10:46:34;;;;;;;;;;;26.60;98.30;;;;;;5049185;28;20004;-58
2021/07/08 10:49:08;;;;;;;;;;;26.70;98.50;;;;;;5050202;28;20353;-51
2021/07/08 10:51:43;;;;;;;;;;;26.70;97.90;;;;;;5050322;28;19909;-55
2021/07/08 10:54:28;;;;;;;;;;;26.60;97.00;;;;;;5027972;28;19944;-52
2021/07/08 10:56:54;;;;;;;;;;;26.60;96.00;;;;;;5049687;28;19912;-49
2021/07/08 10:59:20;;;;;;;;;;;26.70;96.50;;;;;;5044892;28;19932;-52
2021/07/08 11:01:51;;;;;;;;;;;26.80;97.20;;;;;;5050119;28;19913;-52
2021/07/08 11:04:36;;;;;;;;;;;26.80;95.00;;;;;;5042961;28;19997;-51
2021/07/08 11:07:12;;;;;;;;;;;26.90;95.80;;;;;;5050221;28;20359;-52
2021/07/08 11:09:53;;;;;;;;;;;27.00;96.80;;;;;;5046950;28;19920;-56
2021/07/08 11:12:26;;;;;;;;;;;27.20;96.20;;;;;;5042593;28;19915;-53
2021/07/08 11:14:52;;;;;;;;;;;27.10;94.70;;;;;;5045673;28;19916;-48
2021/07/08 11:17:18;;;;;;;;;;;27.20;94.80;;;;;;5048379;28;19912;-55
2021/07/08 11:19:48;;;;;;;;;;;27.30;96.10;;;;;;5045015;28;20395;-57
2021/07/08 11:22:25;;;;;;;;;;;27.30;95.50;;;;;;5047368;28;20329;-50
2021/07/08 11:24:51;;;;;;;;;;;27.40;94.90;;;;;;5049478;28;19915;-53
2021/07/08 11:27:37;;;;;;;;;;;27.50;92.90;;;;;;5046730;28;20566;-54
2021/07/08 11:30:24;;;;;;;;;;;27.50;92.80;;;;;;5049023;28;19909;-55
2021/07/08 11:32:54;;;;;;;;;;;27.50;94.90;;;;;;5045705;28;19917;-50
2021/07/08 11:35:40;;;;;;;;;;;27.60;94.90;;;;;;5048992;28;19909;-54
2021/07/08 11:38:18;;;;;;;;;;;27.70;93.80;;;;;;5024540;28;19959;-54
2021/07/08 11:40:47;;;;;;;;;;;27.80;93.40;;;;;;5045595;28;19913;-48
2021/07/08 11:43:17;;;;;;;;;;;27.70;92.40;;;;;;5046694;28;20414;-49
2021/07/08 11:45:45;;;;;;;;;;;27.70;93.00;;;;;;5029320;28;21212;-53
2021/07/08 11:48:11;;;;;;;;;;;27.60;92.70;;;;;;5050818;28;19917;-55
2021/07/08 11:50:38;;;;;;;;;;;27.80;94.40;;;;;;5053277;28;19908;-48
2021/07/08 11:53:16;;;;;;;;;;;27.80;92.30;;;;;;5050384;28;20429;-54
2021/07/08 11:55:42;;;;;;;;;;;27.80;92.20;;;;;;5052311;28;20331;-54
2021/07/08 11:58:09;;;;;;;;;;;27.90;93.50;;;;;;5049188;28;20375;-50
2021/07/08 12:00:35;;;;;;;;;;;28.00;93.90;;;;;;5051619;28;19920;-51
2021/07/08 12:03:02;;;;;;;;;;;28.00;91.40;;;;;;5048216;28;19915;-56
2021/07/08 12:05:28;;;;;;;;;;;28.10;91.90;;;;;;5050719;28;20387;-55
2021/07/08 12:08:05;;;;;;;;;;;28.30;93.40;;;;;;5053247;28;19955;-53
2021/07/08 12:10:33;;;;;;;;;;;28.40;92.00;;;;;;5049948;28;19909;-53
2021/07/08 12:12:59;;;;;;;;;;;28.60;91.60;;;;;;5051895;28;19917;-51
2021/07/08 12:15:25;;;;;;;;;;;28.70;92.00;;;;;;5048620;28;19915;-52
2021/07/08 12:17:52;;;;;;;;;;;28.80;92.10;;;;;;5033227;28;19909;-54
2021/07/08 12:20:17;;;;;;;;;;;28.70;91.00;;;;;;5047755;28;19917;-56
2021/07/08 12:22:56;;;;;;;;;;;28.60;92.50;;;;;;5050185;28;19916;-51
2021/07/08 12:25:23;;;;;;;;;;;28.50;91.70;;;;;;5045295;28;19919;-56
2021/07/08 12:27:49;;;;;;;;;;;28.40;92.10;;;;;;5049391;28;19959;-54
2021/07/08 12:30:15;;;;;;;;;;;28.40;92.10;;;;;;5033658;28;20386;-52
2021/07/08 12:32:41;;;;;;;;;;;28.40;90.80;;;;;;5048276;28;19917;-54
2021/07/08 12:35:06;;;;;;;;;;;28.50;91.40;;;;;;5050282;28;19909;-51
2021/07/08 12:37:36;;;;;;;;;;;28.50;91.40;;;;;;5047628;28;19962;-52
2021/07/08 12:40:01;;;;;;;;;;;28.70;90.20;;;;;;5031686;28;19920;-48
2021/07/08 12:42:31;;;;;;;;;;;28.80;90.10;;;;;;5034330;28;19991;-54
2021/07/08 12:45:01;;;;;;;;;;;28.90;89.50;;;;;;5047622;28;19908;-56
2021/07/08 12:47:27;;;;;;;;;;;29.00;89.10;;;;;;5049128;28;19916;-51
2021/07/08 12:49:53;;;;;;;;;;;29.20;89.80;;;;;;5034594;28;19912;-55
2021/07/08 12:52:19;;;;;;;;;;;29.20;90.10;;;;;;5049060;28;19909;-56
2021/07/08 12:54:45;;;;;;;;;;;29.40;88.50;;;;;;5051520;28;19935;-53
2021/07/08 12:57:14;;;;;;;;;;;29.30;89.20;;;;;;5049625;28;19913;-49
2021/07/08 12:59:51;;;;;;;;;;;29.30;87.90;;;;;;5049435;28;20331;-51
2021/07/08 13:02:35;;;;;;;;;;;29.20;87.30;;;;;;5041690;28;19945;-55
2021/07/08 13:05:09;;;;;;;;;;;29.00;86.90;;;;;;5047534;28;19909;-54
2021/07/08 13:07:35;;;;;;;;;;;29.00;87.30;;;;;;5051728;28;19909;-50
2021/07/08 13:10:04;;;;;;;;;;;29.10;87.20;;;;;;5048547;28;19947;-53
2021/07/08 13:12:30;;;;;;;;;;;29.30;89.10;;;;;;5051087;28;19913;-55
2021/07/08 13:14:55;;;;;;;;;;;29.50;85.60;;;;;;5047161;28;19909;-57
2021/07/08 13:17:25;;;;;;;;;;;29.60;83.10;;;;;;5050184;28;19916;-51
2021/07/08 13:19:59;;;;;;;;;;;29.60;83.70;;;;;;5046291;28;19909;-53
2021/07/08 13:22:24;;;;;;;;;;;29.70;84.00;;;;;;5049039;28;19916;-52
2021/07/08 13:24:51;;;;;;;;;;;29.70;84.70;;;;;;5050971;28;19909;-53
2021/07/08 13:27:33;;;;;;;;;;;29.70;85.00;;;;;;5048217;28;20385;-48
2021/07/08 13:30:18;;;;;;;;;;;29.80;83.30;;;;;;5050583;28;19916;-49
2021/07/08 13:32:43;;;;;;;;;;;29.70;80.80;;;;;;5068849;22;19928;-59
2021/07/08 13:35:09;;;;;;;;;;;29.40;83.20;;;;;;5050134;28;19912;-57
2021/07/08 13:37:39;;;;;;;;;;;29.30;84.80;;;;;;5033535;28;19940;-57
2021/07/08 13:40:08;;;;;;;;;;;29.10;82.70;;;;;;5033226;28;19931;-59
2021/07/08 13:42:34;;;;;;;;;;;29.00;85.40;;;;;;5051004;28;19909;-57
2021/07/08 13:44:59;;;;;;;;;;;28.90;81.40;;;;;;5051117;28;20061;-60
2021/07/08 13:47:25;;;;;;;;;;;28.70;83.80;;;;;;5033270;28;20008;-59
2021/07/08 13:49:52;;;;;;;;;;;28.70;83.50;;;;;;5051234;28;19955;-60
2021/07/08 13:52:19;;;;;;;;;;;28.70;81.80;;;;;;5050951;28;20385;-58
2021/07/08 13:54:45;;;;;;;;;;;28.70;84.60;;;;;;5033051;28;19909;-59
2021/07/08 13:57:11;;;;;;;;;;;28.70;84.40;;;;;;5051037;28;19939;-59
2021/07/08 13:59:37;;;;;;;;;;;28.80;83.70;;;;;;5050998;28;19908;-60
2021/07/08 14:02:03;;;;;;;;;;;28.90;84.20;;;;;;5033264;28;20391;-59
2021/07/08 14:04:29;;;;;;;;;;;29.10;82.70;;;;;;5050585;28;19923;-60
2021/07/08 14:06:54;;;;;;;;;;;29.30;81.60;;;;;;5051018;28;19951;-54
2021/07/08 14:09:26;;;;;;;;;;;29.00;75.80;;;;;;5050816;28;19995;-59
2021/07/08 14:11:52;;;;;;;;;;;29.00;78.70;;;;;;5050188;28;19970;-58
2021/07/08 14:14:18;;;;;;;;;;;29.00;78.50;;;;;;5050653;28;19912;-59
2021/07/08 14:16:43;;;;;;;;;;;29.10;80.20;;;;;;5050706;28;20371;-58
2021/07/08 14:19:09;;;;;;;;;;;29.10;74.80;;;;;;5063247;28;19939;-58
2021/07/08 14:21:34;;;;;;;;;;;29.00;76.90;;;;;;5048061;28;19917;-59